createdAt,value
2019-03-10T00:01:44.004Z,5.93
2019-03-10T00:04:14.637Z,8.37
2019-03-10T00:06:45.647Z,13.10
2019-03-10T00:09:16.319Z,7.07
2019-03-10T00:11:46.998Z,9.00
2019-03-10T00:14:17.668Z,7.43
2019-03-10T00:16:48.262Z,9.43
2019-03-10T00:19:18.950Z,9.03
2019-03-10T00:21:49.796Z,9.57
2019-03-10T00:24:20.531Z,9.20
2019-03-10T00:26:51.376Z,9.83
2019-03-10T00:29:21.954Z,5.30
2019-03-10T00:31:52.788Z,9.60
2019-03-10T00:34:23.671Z,6.00
2019-03-10T00:36:54.652Z,8.50
2019-03-10T00:40:33.441Z,13.33
2019-03-10T00:44:09.531Z,9.17
2019-03-10T00:47:38.746Z,10.53
2019-03-10T00:51:22.513Z,5.83
2019-03-10T00:53:53.420Z,8.00
2019-03-10T00:56:24.083Z,10.87
2019-03-10T00:58:56.429Z,5.57
2019-03-10T01:01:27.551Z,9.63
2019-03-10T01:03:58.377Z,7.83
2019-03-10T01:06:29.011Z,5.90
2019-03-10T01:08:59.735Z,7.47
2019-03-10T01:11:30.852Z,10.93
2019-03-10T01:14:01.582Z,10.60
2019-03-10T01:16:33.248Z,9.13
2019-03-10T01:19:04.968Z,6.77
2019-03-10T01:21:38.859Z,7.53
2019-03-10T01:24:09.503Z,8.27
2019-03-10T01:26:40.253Z,9.07
2019-03-10T01:29:10.884Z,9.80
2019-03-10T01:32:11.834Z,8.03
2019-03-10T01:35:16.990Z,14.60
2019-03-10T01:37:47.623Z,10.23
2019-03-10T01:40:18.263Z,3.53
2019-03-10T01:42:48.940Z,7.90
2019-03-10T01:45:19.592Z,5.50
2019-03-10T01:47:50.256Z,7.63
2019-03-10T01:50:20.941Z,7.83
2019-03-10T01:52:51.663Z,6.73
2019-03-10T01:55:22.353Z,15.03
2019-03-10T01:57:53.002Z,8.53
2019-03-10T02:00:23.673Z,8.70
2019-03-10T02:02:54.445Z,7.37
2019-03-10T02:05:25.145Z,7.47
2019-03-10T02:07:55.805Z,11.67
2019-03-10T02:10:26.445Z,9.73
2019-03-10T02:12:57.403Z,6.50
2019-03-10T02:15:28.175Z,8.47
2019-03-10T02:17:59.193Z,13.33
2019-03-10T02:20:29.850Z,6.43
2019-03-10T02:23:00.974Z,6.20
2019-03-10T02:25:31.666Z,10.27
2019-03-10T02:28:02.922Z,4.20
2019-03-10T02:30:33.636Z,9.67
2019-03-10T02:33:04.530Z,6.87
2019-03-10T02:35:35.172Z,7.57
2019-03-10T02:38:05.858Z,8.00
2019-03-10T02:40:36.559Z,7.93
2019-03-10T02:43:07.260Z,9.00
2019-03-10T02:45:39.745Z,14.00
2019-03-10T02:48:10.458Z,13.10
2019-03-10T02:50:41.139Z,5.10
2019-03-10T02:53:11.823Z,10.03
2019-03-10T02:55:42.516Z,7.60
2019-03-10T02:58:13.157Z,7.00
2019-03-10T03:00:47.376Z,6.80
2019-03-10T03:03:18.132Z,5.90
2019-03-10T03:05:48.728Z,8.33
2019-03-10T03:08:19.392Z,6.63
2019-03-10T03:10:50.015Z,11.13
2019-03-10T03:13:20.685Z,7.77
2019-03-10T03:15:51.638Z,7.00
2019-03-10T03:18:22.261Z,4.20
2019-03-10T03:20:52.895Z,6.00
2019-03-10T03:23:23.607Z,5.63
2019-03-10T03:25:54.305Z,10.67
2019-03-10T03:28:25.037Z,4.67
2019-03-10T03:30:55.749Z,3.93
2019-03-10T03:33:26.535Z,7.80
2019-03-10T03:36:09.526Z,5.17
2019-03-10T03:38:45.322Z,7.43
2019-03-10T03:41:18.438Z,9.23
2019-03-10T03:43:49.090Z,5.80
2019-03-10T03:46:19.790Z,6.07
2019-03-10T03:48:50.415Z,8.77
2019-03-10T03:51:21.593Z,9.47
2019-03-10T03:53:52.213Z,5.63
2019-03-10T03:56:22.849Z,6.50
2019-03-10T03:58:53.546Z,6.20
2019-03-10T04:01:38.136Z,8.17
2019-03-10T04:04:08.914Z,3.30
2019-03-10T04:06:43.645Z,10.00
2019-03-10T04:09:14.379Z,5.60
2019-03-10T04:11:45.083Z,6.33
2019-03-10T04:14:15.800Z,8.00
2019-03-10T04:16:46.620Z,8.17
2019-03-10T04:19:17.244Z,4.77
2019-03-10T04:21:51.513Z,7.57
2019-03-10T04:24:22.206Z,9.47
2019-03-10T04:26:53.024Z,7.03
2019-03-10T04:29:23.677Z,8.97
2019-03-10T04:31:54.306Z,7.60
2019-03-10T04:34:24.962Z,9.13
2019-03-10T04:36:55.678Z,9.67
2019-03-10T04:39:26.387Z,5.83
2019-03-10T04:41:57.012Z,8.60
2019-03-10T04:44:27.657Z,11.00
2019-03-10T04:46:58.327Z,7.20
2019-03-10T04:49:28.995Z,4.67
2019-03-10T04:51:59.620Z,10.37
2019-03-10T04:54:52.160Z,5.00
2019-03-10T04:57:22.980Z,8.00
2019-03-10T04:59:53.648Z,11.23
2019-03-10T05:02:24.387Z,8.43
2019-03-10T05:04:55.119Z,12.47
2019-03-10T05:07:26.606Z,6.90
2019-03-10T05:09:57.226Z,8.23
2019-03-10T05:12:27.997Z,7.87
2019-03-10T05:14:58.631Z,6.17
2019-03-10T05:17:29.272Z,7.53
2019-03-10T05:19:59.927Z,11.57
2019-03-10T05:22:30.635Z,7.83
2019-03-10T05:25:01.526Z,11.43
2019-03-10T05:27:32.285Z,10.50
2019-03-10T05:30:16.587Z,10.17
2019-03-10T05:32:47.646Z,6.07
2019-03-10T05:35:18.506Z,10.00
2019-03-10T05:37:49.162Z,9.73
2019-03-10T05:40:19.907Z,10.00
2019-03-10T05:42:51.925Z,8.60
2019-03-10T05:45:24.171Z,9.07
2019-03-10T05:47:54.777Z,8.23
2019-03-10T05:50:25.436Z,9.90
2019-03-10T05:52:56.355Z,8.57
2019-03-10T05:55:29.334Z,5.40
2019-03-10T05:57:59.980Z,9.53
2019-03-10T06:00:42.202Z,10.67
2019-03-10T06:03:08.465Z,5.43
2019-03-10T06:05:39.333Z,7.93
2019-03-10T06:08:10.233Z,5.57
2019-03-10T06:10:41.403Z,7.30
2019-03-10T06:13:12.539Z,7.30
2019-03-10T06:15:45.687Z,6.73
2019-03-10T06:18:18.429Z,10.87
2019-03-10T06:20:51.138Z,10.10
2019-03-10T06:23:24.927Z,10.20
2019-03-10T06:26:00.644Z,12.23
2019-03-10T06:28:33.224Z,8.00
2019-03-10T06:31:04.101Z,7.83
2019-03-10T06:33:34.814Z,7.47
2019-03-10T06:36:07.136Z,6.97
2019-03-10T06:38:38.007Z,11.10
2019-03-10T06:41:09.565Z,8.30
2019-03-10T06:43:40.289Z,5.73
2019-03-10T06:46:11.507Z,9.90
2019-03-10T06:48:45.586Z,9.63
2019-03-10T06:51:16.283Z,11.83
2019-03-10T06:53:48.182Z,8.73
2019-03-10T06:56:18.834Z,9.07
2019-03-10T06:58:49.512Z,5.70
2019-03-10T07:01:21.531Z,8.27
2019-03-10T07:03:53.158Z,9.07
2019-03-10T07:06:24.219Z,11.10
2019-03-10T07:08:54.831Z,12.70
2019-03-10T07:11:25.565Z,6.90
2019-03-10T07:13:56.183Z,13.47
2019-03-10T07:16:28.757Z,7.10
2019-03-10T07:19:02.059Z,9.03
2019-03-10T07:21:32.840Z,6.53
2019-03-10T07:24:04.793Z,8.83
2019-03-10T07:26:35.490Z,8.67
2019-03-10T07:29:15.300Z,9.53
2019-03-10T07:32:14.090Z,7.73
2019-03-10T07:35:06.843Z,9.70
2019-03-10T07:38:04.807Z,12.93
2019-03-10T07:41:09.721Z,10.30
2019-03-10T07:43:52.040Z,8.07
2019-03-10T07:46:40.459Z,6.87
2019-03-10T07:49:18.223Z,10.90
2019-03-10T07:52:19.842Z,11.30
2019-03-10T07:55:06.102Z,11.43
2019-03-10T07:57:54.561Z,6.43
2019-03-10T08:00:49.935Z,8.83
2019-03-10T08:03:51.559Z,7.33
2019-03-10T08:06:34.956Z,13.73
2019-03-10T08:09:40.843Z,9.87
2019-03-10T08:12:27.989Z,7.60
2019-03-10T08:15:20.593Z,12.57
2019-03-10T08:18:12.905Z,8.13
2019-03-10T08:21:02.448Z,11.97
2019-03-10T08:23:42.160Z,9.00
2019-03-10T08:26:19.149Z,9.33
2019-03-10T08:29:18.401Z,8.17
2019-03-10T08:31:57.208Z,11.80
2019-03-10T08:34:52.090Z,7.63
2019-03-10T08:37:51.014Z,8.97
2019-03-10T08:40:43.048Z,12.47
2019-03-10T08:43:21.392Z,7.97
2019-03-10T08:46:07.905Z,7.37
2019-03-10T08:49:00.709Z,9.40
2019-03-10T08:51:49.229Z,12.70
2019-03-10T08:54:29.782Z,11.97
2019-03-10T08:57:10.852Z,8.30
2019-03-10T08:59:54.286Z,9.83
2019-03-10T09:02:46.761Z,9.63
2019-03-10T09:05:35.762Z,9.63
2019-03-10T09:08:40.815Z,6.00
2019-03-10T09:11:31.653Z,9.27
2019-03-10T09:14:11.834Z,23.60
2019-03-10T09:17:01.466Z,44.27
2019-03-10T09:20:06.322Z,9.27
2019-03-10T09:22:51.066Z,12.03
2019-03-10T09:25:44.815Z,15.83
2019-03-10T09:28:24.775Z,41.17
2019-03-10T09:31:09.007Z,48.83
2019-03-10T09:34:05.249Z,92.00
2019-03-10T09:36:58.047Z,14.90
2019-03-10T09:39:43.807Z,77.00
2019-03-10T09:42:36.155Z,45.20
2019-03-10T09:45:22.401Z,33.87
2019-03-10T09:48:10.358Z,121.03
2019-03-10T09:50:59.893Z,48.20
2019-03-10T09:53:50.039Z,104.40
2019-03-10T09:56:57.926Z,91.03
2019-03-10T09:59:44.432Z,123.20
2019-03-10T10:02:52.187Z,74.57
2019-03-10T10:05:47.549Z,61.00
2019-03-10T10:08:30.745Z,74.93
2019-03-10T10:11:26.523Z,69.27
2019-03-10T10:14:14.730Z,14.97
2019-03-10T10:17:19.416Z,88.03
2019-03-10T10:20:01.609Z,46.80
2019-03-10T10:22:45.180Z,31.00
2019-03-10T10:25:33.636Z,10.77
2019-03-10T10:28:18.236Z,12.53
2019-03-10T10:31:06.899Z,18.43
2019-03-10T10:33:55.484Z,16.70
2019-03-10T10:36:35.452Z,21.30
2019-03-10T10:39:35.542Z,18.57
2019-03-10T10:42:34.250Z,13.97
2019-03-10T10:45:24.167Z,15.63
2019-03-10T10:48:19.905Z,12.07
2019-03-10T10:51:07.676Z,8.73
2019-03-10T10:53:50.669Z,12.07
2019-03-10T10:56:40.727Z,6.57
2019-03-10T10:59:27.108Z,8.17
2019-03-10T11:02:19.895Z,15.53
2019-03-10T11:04:58.450Z,6.10
2019-03-10T11:07:40.710Z,5.57
2019-03-10T11:10:32.624Z,8.50
2019-03-10T11:13:28.284Z,7.77
2019-03-10T11:16:16.521Z,9.70
2019-03-10T11:19:00.670Z,7.47
2019-03-10T11:21:49.220Z,9.67
2019-03-10T11:24:42.632Z,5.63
2019-03-10T11:27:38.533Z,12.90
2019-03-10T11:30:22.640Z,8.77
2019-03-10T11:33:15.294Z,7.80
2019-03-10T11:36:20.179Z,8.67
2019-03-10T11:39:25.272Z,7.67
2019-03-10T11:42:14.784Z,8.77
2019-03-10T11:45:15.522Z,7.63
2019-03-10T11:48:08.888Z,13.00
2019-03-10T11:50:59.632Z,8.37
2019-03-10T11:53:39.071Z,11.83
2019-03-10T11:56:27.476Z,16.57
2019-03-10T11:59:15.661Z,11.47
2019-03-10T12:02:15.170Z,11.97
2019-03-10T12:04:59.354Z,12.87
2019-03-10T12:07:38.967Z,12.03
2019-03-10T12:10:10.380Z,11.77
2019-03-10T12:12:43.589Z,7.77
2019-03-10T12:15:14.772Z,9.77
2019-03-10T12:17:47.846Z,11.17
2019-03-10T12:20:18.542Z,18.90
2019-03-10T12:22:49.216Z,12.67
2019-03-10T12:25:19.897Z,10.27
2019-03-10T12:27:50.646Z,11.03
2019-03-10T12:30:21.307Z,10.20
2019-03-10T12:32:51.985Z,10.63
2019-03-10T12:35:33.554Z,7.13
2019-03-10T12:37:55.055Z,12.13
2019-03-10T12:40:26.398Z,14.30
2019-03-10T12:42:57.090Z,11.97
2019-03-10T12:45:28.043Z,10.37
2019-03-10T12:47:58.694Z,7.57
2019-03-10T12:50:29.597Z,9.20
2019-03-10T12:53:00.302Z,7.77
2019-03-10T12:55:31.050Z,8.83
2019-03-10T12:58:01.994Z,6.80
2019-03-10T13:00:33.186Z,8.47
2019-03-10T13:03:04.742Z,8.47
2019-03-10T13:05:35.582Z,7.17
2019-03-10T13:08:06.420Z,10.33
2019-03-10T13:10:37.057Z,4.17
2019-03-10T13:13:09.654Z,5.73
2019-03-10T13:15:41.538Z,9.97
2019-03-10T13:18:12.282Z,6.27
2019-03-10T13:20:43.459Z,5.50
2019-03-10T13:23:14.248Z,6.60
2019-03-10T13:25:45.030Z,6.47
2019-03-10T13:28:16.905Z,6.80
2019-03-10T13:30:47.846Z,11.07
2019-03-10T13:33:18.535Z,9.40
2019-03-10T13:35:49.260Z,5.57
2019-03-10T13:38:19.982Z,7.43
2019-03-10T13:40:50.873Z,8.23
2019-03-10T13:43:23.729Z,3.03
2019-03-10T13:45:54.507Z,10.47
2019-03-10T13:48:25.169Z,9.57
2019-03-10T13:50:55.886Z,5.53
2019-03-10T13:53:26.967Z,7.20
2019-03-10T13:55:57.850Z,5.07
2019-03-10T13:58:28.843Z,6.87
2019-03-10T14:00:59.692Z,7.53
2019-03-10T14:03:31.213Z,6.23
2019-03-10T14:06:01.857Z,7.80
2019-03-10T14:08:35.368Z,4.97
2019-03-10T14:11:06.125Z,8.50
2019-03-10T14:13:36.817Z,8.17
2019-03-10T14:16:07.465Z,7.17
2019-03-10T14:18:38.718Z,5.83
2019-03-10T14:21:09.607Z,4.20
2019-03-10T14:23:40.671Z,5.03
2019-03-10T14:26:11.378Z,3.97
2019-03-10T14:28:42.237Z,5.03
2019-03-10T14:31:14.086Z,8.17
2019-03-10T14:33:46.402Z,8.77
2019-03-10T14:36:18.172Z,6.90
2019-03-10T14:38:48.842Z,5.20
2019-03-10T14:41:19.801Z,3.33
2019-03-10T14:43:50.392Z,3.70
2019-03-10T14:46:21.072Z,5.23
2019-03-10T14:48:51.809Z,3.50
2019-03-10T14:51:23.274Z,5.43
2019-03-10T14:53:53.910Z,5.40
2019-03-10T14:56:24.589Z,4.27
2019-03-10T14:58:55.371Z,5.77
2019-03-10T15:01:26.196Z,28.87
2019-03-10T15:03:57.148Z,4.57
2019-03-10T15:06:27.873Z,3.80
2019-03-10T15:08:59.550Z,4.90
2019-03-10T15:11:33.658Z,6.10
2019-03-10T15:14:11.221Z,3.37
2019-03-10T15:16:42.157Z,6.87
2019-03-10T15:19:12.802Z,4.23
2019-03-10T15:21:44.207Z,3.67
2019-03-10T15:24:14.803Z,6.23
2019-03-10T15:26:46.202Z,4.63
2019-03-10T15:29:17.031Z,5.77
2019-03-10T15:31:47.730Z,2.63
2019-03-10T15:34:18.400Z,5.93
2019-03-10T15:36:50.255Z,4.50
2019-03-10T15:39:20.916Z,3.80
2019-03-10T15:41:51.564Z,4.77
2019-03-10T15:44:22.216Z,9.50
2019-03-10T15:46:52.954Z,5.37
2019-03-10T15:49:23.672Z,4.70
2019-03-10T15:51:54.328Z,7.67
2019-03-10T15:54:25.223Z,6.73
2019-03-10T15:56:55.841Z,4.13
2019-03-10T15:59:26.899Z,5.77
2019-03-10T16:01:57.580Z,3.53
2019-03-10T16:04:28.312Z,5.57
2019-03-10T16:06:58.996Z,5.90
2019-03-10T16:09:29.667Z,4.03
2019-03-10T16:12:03.106Z,4.97
2019-03-10T16:14:34.007Z,4.20
2019-03-10T16:17:04.811Z,5.37
2019-03-10T16:19:36.027Z,4.53
2019-03-10T16:22:06.687Z,4.57
2019-03-10T16:24:39.874Z,2.37
2019-03-10T16:27:10.510Z,4.40
2019-03-10T16:29:41.246Z,4.27
2019-03-10T16:32:11.907Z,3.83
2019-03-10T16:34:42.522Z,5.47
2019-03-10T16:37:13.189Z,6.10
2019-03-10T16:39:45.386Z,5.07
2019-03-10T16:42:16.684Z,6.67
2019-03-10T16:44:47.342Z,7.47
2019-03-10T16:47:18.149Z,8.80
2019-03-10T16:49:58.940Z,7.20
2019-03-10T16:52:30.147Z,6.37
2019-03-10T16:55:00.752Z,7.13
2019-03-10T16:57:31.872Z,7.47
2019-03-10T17:00:02.504Z,7.33
2019-03-10T17:02:33.334Z,11.90
2019-03-10T17:05:03.952Z,5.03
2019-03-10T17:07:34.595Z,7.77
2019-03-10T17:10:05.573Z,4.90
2019-03-10T17:12:37.314Z,5.47
2019-03-10T17:15:10.635Z,7.20
2019-03-10T17:17:41.992Z,6.33
2019-03-10T17:20:14.414Z,6.67
2019-03-10T17:22:47.117Z,6.00
2019-03-10T17:25:17.876Z,5.03
2019-03-10T17:27:49.805Z,5.87
2019-03-10T17:30:22.095Z,4.63
2019-03-10T17:32:52.802Z,6.07
2019-03-10T17:35:23.603Z,4.73
2019-03-10T17:37:54.250Z,4.10
2019-03-10T17:40:24.925Z,5.67
2019-03-10T17:42:55.904Z,5.10
2019-03-10T17:45:26.947Z,4.23
2019-03-10T17:47:59.079Z,7.03
2019-03-10T17:50:29.768Z,4.50
2019-03-10T17:53:01.136Z,5.17
2019-03-10T17:55:32.038Z,4.77
2019-03-10T17:58:02.742Z,5.83
2019-03-10T18:00:34.264Z,6.03
2019-03-10T18:03:05.022Z,6.53
2019-03-10T18:05:35.976Z,8.90
2019-03-10T18:08:06.674Z,10.67
2019-03-10T18:10:38.501Z,6.43
2019-03-10T18:13:11.284Z,7.77
2019-03-10T18:15:43.796Z,8.93
2019-03-10T18:18:14.492Z,9.30
2019-03-10T18:20:45.349Z,9.80
2019-03-10T18:23:16.042Z,7.27
2019-03-10T18:25:47.607Z,12.67
2019-03-10T18:28:18.396Z,9.73
2019-03-10T18:30:49.613Z,11.33
2019-03-10T18:33:20.388Z,7.27
2019-03-10T18:35:51.549Z,13.13
2019-03-10T18:38:22.276Z,11.70
2019-03-10T18:40:52.942Z,13.13
2019-03-10T18:43:25.087Z,8.00
2019-03-10T18:45:56.988Z,11.20
2019-03-10T18:48:27.737Z,9.77
2019-03-10T18:50:58.377Z,10.13
2019-03-10T18:53:29.031Z,6.23
2019-03-10T18:55:59.694Z,5.33
2019-03-10T18:58:32.423Z,3.90
2019-03-10T19:01:03.067Z,3.40
2019-03-10T19:03:33.746Z,5.20
2019-03-10T19:06:04.453Z,4.43
2019-03-10T19:08:35.115Z,3.23
2019-03-10T19:11:05.870Z,5.07
2019-03-10T19:13:36.687Z,4.00
2019-03-10T19:16:07.430Z,2.30
2019-03-10T19:18:38.411Z,4.20
2019-03-10T19:21:09.138Z,3.67
2019-03-10T19:23:40.202Z,3.63
2019-03-10T19:26:11.461Z,6.73
2019-03-10T19:28:42.495Z,5.27
2019-03-10T19:31:14.562Z,3.67
2019-03-10T19:33:46.300Z,2.70
2019-03-10T19:36:17.065Z,3.53
2019-03-10T19:38:47.885Z,2.70
2019-03-10T19:41:19.026Z,2.10
2019-03-10T19:43:49.983Z,1.70
2019-03-10T19:46:20.624Z,2.17
2019-03-10T19:48:52.147Z,3.40
2019-03-10T19:51:23.544Z,4.50
2019-03-10T19:53:54.659Z,4.13
2019-03-10T19:56:25.343Z,4.37
2019-03-10T19:58:57.580Z,3.20
2019-03-10T20:01:28.864Z,4.93
2019-03-10T20:03:59.606Z,4.23
2019-03-10T20:06:30.380Z,3.93
2019-03-10T20:09:01.531Z,2.97
2019-03-10T20:11:34.529Z,4.77
2019-03-10T20:14:05.257Z,4.83
2019-03-10T20:16:36.091Z,4.13
2019-03-10T20:19:06.750Z,4.10
2019-03-10T20:21:37.717Z,4.47
2019-03-10T20:24:08.476Z,3.93
2019-03-10T20:26:39.277Z,3.50
2019-03-10T20:29:10.018Z,5.27
2019-03-10T20:31:41.418Z,5.17
2019-03-10T20:34:12.099Z,5.93
2019-03-10T20:36:43.686Z,5.83
2019-03-10T20:39:14.340Z,5.67
2019-03-10T20:41:45.007Z,5.97
2019-03-10T20:44:15.719Z,5.40
2019-03-10T20:46:48.540Z,5.90
2019-03-10T20:49:19.395Z,4.10
2019-03-10T20:51:50.582Z,4.17
2019-03-10T20:54:21.332Z,3.37
2019-03-10T20:56:51.998Z,3.70
2019-03-10T20:59:22.758Z,4.43
2019-03-10T21:01:53.653Z,3.07
2019-03-10T21:04:24.677Z,4.30
2019-03-10T21:06:55.810Z,6.03
2019-03-10T21:09:27.630Z,4.97
2019-03-10T21:11:59.251Z,4.77
2019-03-10T21:14:30.046Z,4.00
2019-03-10T21:17:00.866Z,4.80
2019-03-10T21:19:31.540Z,4.87
2019-03-10T21:22:02.241Z,4.07
2019-03-10T21:24:32.921Z,3.80
2019-03-10T21:27:03.563Z,6.20
2019-03-10T21:29:35.986Z,5.43
2019-03-10T21:32:07.466Z,3.50
2019-03-10T21:34:38.965Z,3.60
2019-03-10T21:37:10.243Z,4.80
2019-03-10T21:39:43.149Z,2.83
2019-03-10T21:42:14.480Z,4.70
2019-03-10T21:44:45.679Z,3.00
2019-03-10T21:47:16.376Z,4.40
2019-03-10T21:49:47.028Z,4.97
2019-03-10T21:52:19.131Z,2.63
2019-03-10T21:54:50.528Z,4.97
2019-03-10T21:57:21.245Z,2.73
2019-03-10T21:59:51.886Z,5.80
2019-03-10T22:02:22.680Z,2.93
2019-03-10T22:04:54.134Z,5.80
2019-03-10T22:07:25.728Z,2.47
2019-03-10T22:09:57.517Z,2.83
2019-03-10T22:12:28.222Z,2.63
2019-03-10T22:14:59.507Z,4.90
2019-03-10T22:17:30.648Z,2.70
2019-03-10T22:20:02.184Z,5.40
2019-03-10T22:22:32.939Z,5.30
2019-03-10T22:25:12.164Z,2.53
2019-03-10T22:27:36.110Z,3.57
2019-03-10T22:30:07.599Z,2.93
2019-03-10T22:32:38.379Z,4.57
2019-03-10T22:35:09.199Z,8.87
2019-03-10T22:37:40.014Z,3.83
2019-03-10T22:40:11.798Z,4.27
2019-03-10T22:42:44.177Z,4.80
2019-03-10T22:45:15.764Z,4.63
2019-03-10T22:47:46.402Z,4.37
2019-03-10T22:50:17.282Z,5.90
2019-03-10T22:52:48.227Z,8.93
2019-03-10T22:55:19.049Z,7.40
2019-03-10T22:57:50.486Z,8.43
2019-03-10T23:00:21.931Z,11.83
2019-03-10T23:02:52.601Z,11.73
2019-03-10T23:05:23.343Z,7.63
2019-03-10T23:07:54.002Z,8.73
2019-03-10T23:10:24.639Z,7.40
2019-03-10T23:12:55.562Z,12.37
2019-03-10T23:15:26.248Z,11.90
2019-03-10T23:17:56.939Z,12.00
2019-03-10T23:20:27.589Z,10.43
2019-03-10T23:22:58.226Z,9.23
2019-03-10T23:25:28.879Z,11.77
2019-03-10T23:27:59.564Z,10.07
2019-03-10T23:30:30.218Z,11.80
2019-03-10T23:33:01.144Z,11.33
2019-03-10T23:35:31.771Z,11.20
2019-03-10T23:38:02.927Z,12.70
2019-03-10T23:40:33.934Z,10.33
2019-03-10T23:43:05.342Z,17.50
2019-03-10T23:45:35.991Z,10.30
2019-03-10T23:48:07.233Z,13.03
2019-03-10T23:50:37.943Z,11.17
2019-03-10T23:53:08.725Z,13.23
2019-03-10T23:55:39.320Z,13.53
2019-03-10T23:58:10.165Z,12.60
